createdAt,value
2019-06-07T00:00:52.446Z,7.05
2019-06-07T00:03:27.621Z,8.10
2019-06-07T00:05:46.801Z,11.12
2019-06-07T00:08:21.329Z,9.85
2019-06-07T00:10:41.488Z,9.95
2019-06-07T00:13:09.298Z,8.60
2019-06-07T00:15:35.735Z,7.15
2019-06-07T00:18:02.016Z,8.73
2019-06-07T00:20:28.297Z,10.18
2019-06-07T00:22:54.460Z,10.10
2019-06-07T00:25:24.320Z,8.23
2019-06-07T00:27:49.013Z,10.65
2019-06-07T00:30:35.949Z,7.62
2019-06-07T00:32:45.731Z,8.23
2019-06-07T00:35:15.387Z,10.80
2019-06-07T00:37:41.464Z,10.75
2019-06-07T00:40:20.652Z,12.25
2019-06-07T00:42:36.522Z,9.25
2019-06-07T00:45:07.526Z,8.90
2019-06-07T00:47:33.714Z,11.83
2019-06-07T00:49:59.897Z,11.22
2019-06-07T00:54:54.152Z,11.15
2019-06-07T00:57:22.156Z,11.80
2019-06-07T00:59:48.423Z,10.58
2019-06-07T01:02:16.084Z,10.55
2019-06-07T01:04:42.714Z,9.08
2019-06-07T01:07:08.873Z,13.43
2019-06-07T01:09:35.058Z,12.88
2019-06-07T01:12:01.223Z,10.25
2019-06-07T01:14:28.754Z,11.68
2019-06-07T01:17:05.269Z,10.72
2019-06-07T01:19:26.484Z,13.13
2019-06-07T01:21:52.159Z,10.25
2019-06-07T01:24:19.911Z,10.72
2019-06-07T01:26:46.334Z,14.60
2019-06-07T01:29:12.499Z,12.53
2019-06-07T01:31:38.692Z,12.05
2019-06-07T01:34:05.853Z,13.65
2019-06-07T01:36:32.057Z,12.28
2019-06-07T01:38:58.401Z,12.50
2019-06-07T01:41:25.899Z,14.70
2019-06-07T01:43:52.669Z,12.80
2019-06-07T01:46:20.605Z,11.95
2019-06-07T01:48:56.504Z,14.90
2019-06-07T01:51:24.290Z,12.85
2019-06-07T01:53:50.968Z,11.57
2019-06-07T01:56:18.528Z,12.05
2019-06-07T01:58:45.214Z,13.32
2019-06-07T02:01:11.369Z,12.40
2019-06-07T02:03:37.554Z,13.05
2019-06-07T02:06:03.837Z,11.60
2019-06-07T02:08:34.256Z,11.50
2019-06-07T02:10:58.117Z,11.78
2019-06-07T02:13:27.407Z,13.88
2019-06-07T02:15:52.473Z,11.65
2019-06-07T02:18:21.778Z,11.75
2019-06-07T02:20:46.996Z,11.65
2019-06-07T02:23:13.158Z,12.85
2019-06-07T02:25:49.593Z,10.58
2019-06-07T02:28:32.059Z,16.00
2019-06-07T02:30:44.627Z,11.57
2019-06-07T02:33:03.574Z,13.22
2019-06-07T02:35:34.748Z,13.32
2019-06-07T02:37:57.830Z,9.83
2019-06-07T02:40:24.504Z,11.73
2019-06-07T02:42:52.086Z,10.05
2019-06-07T02:45:18.454Z,12.13
2019-06-07T02:50:39.020Z,18.30
2019-06-07T02:53:05.429Z,12.47
2019-06-07T02:55:44.729Z,11.78
2019-06-07T02:57:59.670Z,12.00
2019-06-07T03:01:00.518Z,11.65
2019-06-07T03:03:14.050Z,13.35
2019-06-07T03:05:44.553Z,13.10
2019-06-07T03:08:13.794Z,13.75
2019-06-07T03:10:43.770Z,11.68
2019-06-07T03:13:13.089Z,15.32
2019-06-07T03:15:49.622Z,12.70
2019-06-07T03:18:12.845Z,17.32
2019-06-07T03:20:40.949Z,16.27
2019-06-07T03:23:07.349Z,14.00
2019-06-07T03:25:37.373Z,15.72
2019-06-07T03:28:05.308Z,16.40
2019-06-07T03:30:52.737Z,13.90
2019-06-07T03:32:59.590Z,13.45
2019-06-07T03:35:28.475Z,13.72
2019-06-07T03:37:53.862Z,13.50
2019-06-07T03:40:20.027Z,14.60
2019-06-07T03:42:46.256Z,13.55
2019-06-07T03:45:13.835Z,11.88
2019-06-07T03:47:42.648Z,13.28
2019-06-07T03:50:08.251Z,14.15
2019-06-07T03:52:36.901Z,12.50
2019-06-07T03:55:04.404Z,13.95
2019-06-07T03:58:14.951Z,11.80
2019-06-07T03:59:58.633Z,12.47
2019-06-07T04:02:25.112Z,11.45
2019-06-07T04:04:51.298Z,11.48
2019-06-07T04:07:17.452Z,11.48
2019-06-07T04:09:43.633Z,14.83
2019-06-07T04:12:09.825Z,9.88
2019-06-07T04:14:38.505Z,11.90
2019-06-07T04:17:04.081Z,9.35
2019-06-07T04:19:32.212Z,9.80
2019-06-07T04:21:58.477Z,11.65
2019-06-07T04:24:24.655Z,9.85
2019-06-07T04:26:50.849Z,10.75
2019-06-07T04:29:41.586Z,8.45
2019-06-07T04:31:45.198Z,10.90
2019-06-07T04:34:11.492Z,7.45
2019-06-07T04:36:51.934Z,8.05
2019-06-07T04:39:06.692Z,10.20
2019-06-07T04:41:36.689Z,7.37
2019-06-07T04:44:02.269Z,10.88
2019-06-07T04:46:31.406Z,6.85
2019-06-07T04:49:00.925Z,9.95
2019-06-07T04:51:30.149Z,11.90
2019-06-07T04:53:56.857Z,10.53
2019-06-07T04:56:23.062Z,8.53
2019-06-07T04:58:49.310Z,8.48
2019-06-07T05:01:26.831Z,8.05
2019-06-07T05:03:44.466Z,11.40
2019-06-07T05:06:10.902Z,8.08
2019-06-07T05:08:38.781Z,9.05
2019-06-07T05:11:05.161Z,10.50
2019-06-07T05:13:36.733Z,11.85
2019-06-07T05:15:59.826Z,10.03
2019-06-07T05:18:26.132Z,11.55
2019-06-07T05:20:53.241Z,10.78
2019-06-07T05:24:00.305Z,10.35
2019-06-07T05:25:47.661Z,10.45
2019-06-07T05:28:13.863Z,12.30
2019-06-07T05:33:15.406Z,12.05
2019-06-07T05:35:43.494Z,11.53
2019-06-07T05:38:09.892Z,10.40
2019-06-07T05:40:42.445Z,11.95
2019-06-07T05:43:10.863Z,14.05
2019-06-07T05:45:42.285Z,11.93
2019-06-07T05:48:06.782Z,11.38
2019-06-07T05:50:41.511Z,10.23
2019-06-07T05:53:01.504Z,11.28
2019-06-07T05:55:28.791Z,10.50
2019-06-07T05:57:55.256Z,9.55
2019-06-07T06:00:21.422Z,10.60
2019-06-07T06:03:04.351Z,9.73
2019-06-07T06:05:32.556Z,11.97
2019-06-07T06:07:50.450Z,9.98
2019-06-07T06:10:14.369Z,9.28
2019-06-07T06:12:45.173Z,9.58
2019-06-07T06:15:09.884Z,9.70
2019-06-07T06:17:37.832Z,10.13
2019-06-07T06:20:05.520Z,12.10
2019-06-07T06:22:31.719Z,10.32
2019-06-07T06:25:30.542Z,9.88
2019-06-07T06:28:03.429Z,9.58
2019-06-07T06:29:54.218Z,11.05
2019-06-07T06:34:52.749Z,12.70
2019-06-07T06:37:17.724Z,9.85
2019-06-07T06:39:46.613Z,9.78
2019-06-07T06:42:12.028Z,8.65
2019-06-07T06:44:40.732Z,9.45
2019-06-07T06:47:06.303Z,10.53
2019-06-07T06:49:32.470Z,10.28
2019-06-07T06:51:58.782Z,8.95
2019-06-07T06:54:40.094Z,10.80
2019-06-07T06:56:53.168Z,9.98
2019-06-07T06:59:38.133Z,8.85
2019-06-07T07:01:50.573Z,6.85
2019-06-07T07:04:15.922Z,7.47
2019-06-07T07:06:42.757Z,6.92
2019-06-07T07:09:09.033Z,7.47
2019-06-07T07:11:52.273Z,6.30
2019-06-07T07:14:03.316Z,8.13
2019-06-07T07:16:29.481Z,7.62
2019-06-07T07:18:55.713Z,7.15
2019-06-07T07:21:21.898Z,8.15
2019-06-07T07:24:14.722Z,6.28
2019-06-07T07:26:16.150Z,6.20
2019-06-07T07:28:42.993Z,6.08
2019-06-07T07:31:10.003Z,5.75
2019-06-07T07:36:19.102Z,6.85
2019-06-07T07:38:32.490Z,6.15
2019-06-07T07:41:13.951Z,7.42
2019-06-07T07:43:26.837Z,7.00
2019-06-07T07:46:01.364Z,5.62
2019-06-07T07:48:21.192Z,5.65
2019-06-07T07:50:49.783Z,7.15
2019-06-07T07:53:15.573Z,5.10
2019-06-07T07:55:41.778Z,5.08
2019-06-07T07:58:07.981Z,6.83
2019-06-07T08:00:52.587Z,7.97
2019-06-07T08:03:04.551Z,6.22
2019-06-07T08:05:42.558Z,6.28
2019-06-07T08:08:01.608Z,6.12
2019-06-07T08:10:27.232Z,6.17
2019-06-07T08:13:15.882Z,6.40
2019-06-07T08:15:21.619Z,7.50
2019-06-07T08:17:50.509Z,6.20
2019-06-07T08:20:16.361Z,7.60
2019-06-07T08:22:42.554Z,6.60
2019-06-07T08:25:10.719Z,6.40
2019-06-07T08:27:38.022Z,6.25
2019-06-07T08:30:35.473Z,7.17
2019-06-07T08:32:34.882Z,5.72
2019-06-07T08:35:06.053Z,7.60
2019-06-07T08:38:13.158Z,5.95
2019-06-07T08:39:59.745Z,8.40
2019-06-07T08:42:36.469Z,6.55
2019-06-07T08:44:54.299Z,6.08
2019-06-07T08:47:21.573Z,7.00
2019-06-07T08:49:47.764Z,6.45
2019-06-07T08:52:14.151Z,7.20
2019-06-07T08:54:40.345Z,6.87
2019-06-07T08:57:20.440Z,5.92
2019-06-07T08:59:34.590Z,8.43
2019-06-07T09:02:05.773Z,8.60
2019-06-07T09:04:29.095Z,7.00
2019-06-07T09:07:07.253Z,7.42
2019-06-07T09:09:23.491Z,8.00
2019-06-07T09:11:49.665Z,7.75
2019-06-07T09:14:15.868Z,6.90
2019-06-07T09:16:42.032Z,7.65
2019-06-07T09:19:11.030Z,7.92
2019-06-07T09:21:36.327Z,9.10
2019-06-07T09:24:08.810Z,12.53
2019-06-07T09:26:31.120Z,8.13
2019-06-07T09:28:58.543Z,7.65
2019-06-07T09:31:50.623Z,7.70
2019-06-07T09:33:54.218Z,8.13
2019-06-07T09:36:20.411Z,7.65
2019-06-07T09:38:46.803Z,7.30
2019-06-07T09:41:13.017Z,6.87
2019-06-07T09:44:05.236Z,8.30
2019-06-07T09:46:12.813Z,6.60
2019-06-07T09:51:09.866Z,10.25
2019-06-07T09:53:32.825Z,8.60
2019-06-07T09:56:03.540Z,10.23
2019-06-07T10:00:55.168Z,9.25
2019-06-07T10:03:22.782Z,7.47
2019-06-07T10:05:49.221Z,7.58
2019-06-07T10:09:01.033Z,7.78
2019-06-07T10:10:43.543Z,8.08
2019-06-07T10:13:10.323Z,7.85
2019-06-07T10:15:36.824Z,8.38
2019-06-07T10:18:03.215Z,7.47
2019-06-07T10:20:29.378Z,6.50
2019-06-07T10:22:56.849Z,6.53
2019-06-07T10:25:23.024Z,6.35
2019-06-07T10:27:49.187Z,9.70
2019-06-07T10:30:15.482Z,8.93
2019-06-07T10:32:41.645Z,6.33
2019-06-07T10:35:10.188Z,6.10
2019-06-07T10:37:36.569Z,8.63
2019-06-07T10:40:06.782Z,7.15
2019-06-07T10:42:33.153Z,6.05
2019-06-07T10:44:59.342Z,8.13
2019-06-07T10:47:25.533Z,6.85
2019-06-07T10:49:51.808Z,6.80
2019-06-07T10:52:17.975Z,5.72
2019-06-07T10:54:45.294Z,6.12
2019-06-07T10:57:15.899Z,7.87
2019-06-07T10:59:40.664Z,6.83
2019-06-07T11:02:07.958Z,5.87
2019-06-07T11:04:34.208Z,6.22
2019-06-07T11:07:00.493Z,5.33
2019-06-07T11:09:26.997Z,5.70
2019-06-07T11:11:53.148Z,6.92
2019-06-07T11:14:19.335Z,5.80
2019-06-07T11:16:45.489Z,5.53
2019-06-07T11:19:14.442Z,5.25
2019-06-07T11:21:40.855Z,4.75
2019-06-07T11:24:08.074Z,5.62
2019-06-07T11:26:34.314Z,4.37
2019-06-07T11:29:00.494Z,5.53
2019-06-07T11:31:26.672Z,4.85
2019-06-07T11:33:52.921Z,4.50
2019-06-07T11:36:19.089Z,4.47
2019-06-07T11:38:45.396Z,5.08
2019-06-07T11:41:11.638Z,6.85
2019-06-07T11:43:37.839Z,5.12
2019-06-07T11:46:04.127Z,5.65
2019-06-07T11:48:30.366Z,5.03
2019-06-07T11:50:57.237Z,5.85
2019-06-07T11:53:23.753Z,4.92
2019-06-07T11:55:49.950Z,5.90
2019-06-07T11:58:19.742Z,4.60
2019-06-07T12:00:44.388Z,4.58
2019-06-07T12:03:11.579Z,6.60
2019-06-07T12:05:37.940Z,4.30
2019-06-07T12:08:04.209Z,5.17
2019-06-07T12:10:41.748Z,4.60
2019-06-07T12:12:58.533Z,6.17
2019-06-07T12:15:24.801Z,5.35
2019-06-07T12:17:51.029Z,6.55
2019-06-07T12:20:18.861Z,6.95
2019-06-07T12:22:45.567Z,4.83
2019-06-07T12:25:12.546Z,5.97
2019-06-07T12:27:39.817Z,6.95
2019-06-07T12:30:11.163Z,9.93
2019-06-07T12:32:34.886Z,5.37
2019-06-07T12:35:01.077Z,5.62
2019-06-07T12:37:42.679Z,6.60
2019-06-07T12:39:56.451Z,5.08
2019-06-07T12:42:22.757Z,8.28
2019-06-07T12:44:49.095Z,6.87
2019-06-07T12:47:15.276Z,6.65
2019-06-07T12:49:41.602Z,5.97
2019-06-07T12:52:07.788Z,9.55
2019-06-07T12:54:33.970Z,5.45
2019-06-07T12:57:00.200Z,5.08
2019-06-07T12:59:26.386Z,5.95
2019-06-07T13:01:52.727Z,4.60
2019-06-07T13:04:18.923Z,5.00
2019-06-07T13:06:45.333Z,6.22
2019-06-07T13:09:11.516Z,5.40
2019-06-07T13:11:37.856Z,8.90
2019-06-07T13:14:04.149Z,5.40
2019-06-07T13:16:30.316Z,5.87
2019-06-07T13:18:56.851Z,5.75
2019-06-07T13:21:24.498Z,6.65
2019-06-07T13:23:51.078Z,6.67
2019-06-07T13:26:18.500Z,8.18
2019-06-07T13:28:44.892Z,5.20
2019-06-07T13:31:11.079Z,5.35
2019-06-07T13:33:38.861Z,9.53
2019-06-07T13:36:05.349Z,7.22
2019-06-07T13:38:31.622Z,8.53
2019-06-07T13:40:57.847Z,6.08
2019-06-07T13:43:25.591Z,6.12
2019-06-07T13:45:52.134Z,8.35
2019-06-07T13:48:19.210Z,7.17
2019-06-07T13:50:45.700Z,8.45
2019-06-07T13:53:11.879Z,8.80
2019-06-07T13:55:38.110Z,6.17
2019-06-07T13:58:04.363Z,6.95
2019-06-07T14:00:31.685Z,11.60
2019-06-07T14:02:57.954Z,8.55
2019-06-07T14:05:25.019Z,8.13
2019-06-07T14:07:51.708Z,5.75
2019-06-07T14:10:19.277Z,6.72
2019-06-07T14:12:45.668Z,6.62
2019-06-07T14:15:12.453Z,5.45
2019-06-07T14:17:38.666Z,6.72
2019-06-07T14:20:09.420Z,6.20
2019-06-07T14:22:36.646Z,8.20
2019-06-07T14:25:08.264Z,5.97
2019-06-07T14:27:34.456Z,6.87
2019-06-07T14:30:00.608Z,5.30
2019-06-07T14:32:26.896Z,5.65
2019-06-07T14:34:53.067Z,4.55
2019-06-07T14:37:19.432Z,4.70
2019-06-07T14:39:45.603Z,5.25
2019-06-07T14:42:11.901Z,5.90
2019-06-07T14:44:38.128Z,4.85
2019-06-07T14:47:04.490Z,5.60
2019-06-07T14:49:30.658Z,6.80
2019-06-07T14:51:57.942Z,5.33
2019-06-07T14:54:24.577Z,7.90
2019-06-07T14:56:50.892Z,6.65
2019-06-07T14:59:17.072Z,4.85
2019-06-07T15:01:43.259Z,6.62
2019-06-07T15:04:09.655Z,7.25
2019-06-07T15:06:35.838Z,8.90
2019-06-07T15:09:04.872Z,4.47
2019-06-07T15:11:32.998Z,9.18
2019-06-07T15:13:59.410Z,5.08
2019-06-07T15:16:25.607Z,5.33
2019-06-07T15:18:51.798Z,5.60
2019-06-07T15:21:17.948Z,5.55
2019-06-07T15:23:44.250Z,5.72
2019-06-07T15:26:30.294Z,4.97
2019-06-07T15:28:56.495Z,6.53
2019-06-07T15:31:22.648Z,4.60
2019-06-07T15:33:48.907Z,7.85
2019-06-07T15:36:15.064Z,5.42
2019-06-07T15:38:41.366Z,6.62
2019-06-07T15:41:07.695Z,5.53
2019-06-07T15:43:35.084Z,6.10
2019-06-07T15:46:01.529Z,5.78
2019-06-07T15:48:27.722Z,6.55
2019-06-07T15:50:53.976Z,6.72
2019-06-07T15:53:20.166Z,6.75
2019-06-07T15:55:46.338Z,6.15
2019-06-07T15:58:12.709Z,6.40
2019-06-07T16:00:40.596Z,7.00
2019-06-07T16:03:07.004Z,6.03
2019-06-07T16:05:34.181Z,6.47
2019-06-07T16:08:00.625Z,6.42
2019-06-07T16:10:26.808Z,9.70
2019-06-07T16:13:00.041Z,6.25
2019-06-07T16:15:21.607Z,6.58
2019-06-07T16:17:47.778Z,5.47
2019-06-07T16:20:14.368Z,5.20
2019-06-07T16:22:41.881Z,4.95
2019-06-07T16:25:09.138Z,7.12
2019-06-07T16:27:36.754Z,7.55
2019-06-07T16:30:11.962Z,6.60
2019-06-07T16:32:39.292Z,5.03
2019-06-07T16:35:06.793Z,6.53
2019-06-07T16:37:33.004Z,7.35
2019-06-07T16:39:59.295Z,5.97
2019-06-07T16:42:25.547Z,5.22
2019-06-07T16:44:51.788Z,6.20
2019-06-07T16:47:18.026Z,5.90
2019-06-07T16:49:45.099Z,6.55
2019-06-07T16:52:12.349Z,8.55
2019-06-07T16:54:39.314Z,7.10
2019-06-07T16:57:05.758Z,7.08
2019-06-07T16:59:31.967Z,7.30
2019-06-07T17:01:58.143Z,7.90
2019-06-07T17:04:24.395Z,5.33
2019-06-07T17:06:50.653Z,7.37
2019-06-07T17:09:16.995Z,5.70
2019-06-07T17:11:44.319Z,8.25
2019-06-07T17:14:11.288Z,7.67
2019-06-07T17:16:38.803Z,6.75
2019-06-07T17:19:05.147Z,6.75
2019-06-07T17:21:31.312Z,7.60
2019-06-07T17:23:57.501Z,7.10
2019-06-07T17:26:23.710Z,9.33
2019-06-07T17:28:50.139Z,8.90
2019-06-07T17:31:16.480Z,7.42
2019-06-07T17:33:43.855Z,6.30
2019-06-07T17:36:10.254Z,6.55
2019-06-07T17:38:36.574Z,7.35
2019-06-07T17:41:02.829Z,6.22
2019-06-07T17:43:29.110Z,8.43
2019-06-07T17:45:55.394Z,7.37
2019-06-07T17:48:23.965Z,6.72
2019-06-07T17:50:50.006Z,7.62
2019-06-07T17:53:16.278Z,5.60
2019-06-07T17:55:42.473Z,9.75
2019-06-07T17:58:08.632Z,5.70
2019-06-07T18:00:46.523Z,6.47
2019-06-07T18:03:34.672Z,7.35
2019-06-07T18:06:01.485Z,7.42
2019-06-07T18:08:27.961Z,7.33
2019-06-07T18:10:54.318Z,6.58
2019-06-07T18:13:21.681Z,8.70
2019-06-07T18:15:52.974Z,9.28
2019-06-07T18:18:16.561Z,6.35
2019-06-07T18:20:42.996Z,7.62
2019-06-07T18:23:09.780Z,7.95
2019-06-07T18:25:36.316Z,7.08
2019-06-07T18:28:03.448Z,9.75
2019-06-07T18:30:29.610Z,8.50
2019-06-07T18:32:55.788Z,9.45
2019-06-07T18:35:21.963Z,11.55
2019-06-07T18:37:48.951Z,9.98
2019-06-07T18:40:15.421Z,9.75
2019-06-07T18:42:41.600Z,11.68
2019-06-07T18:45:08.693Z,8.50
2019-06-07T18:47:35.120Z,8.50
2019-06-07T18:50:01.300Z,5.87
2019-06-07T18:52:32.103Z,6.85
2019-06-07T18:54:59.659Z,7.37
2019-06-07T18:57:25.964Z,6.45
2019-06-07T18:59:52.350Z,7.55
2019-06-07T19:02:18.880Z,9.53
2019-06-07T19:04:45.049Z,6.85
2019-06-07T19:07:11.290Z,9.95
2019-06-07T19:09:37.464Z,7.45
2019-06-07T19:12:03.652Z,10.00
2019-06-07T19:14:37.019Z,6.90
2019-06-07T19:16:58.023Z,8.88
2019-06-07T19:19:24.213Z,9.40
2019-06-07T19:21:51.992Z,7.58
2019-06-07T19:24:38.186Z,10.98
2019-06-07T19:27:04.426Z,10.03
2019-06-07T19:29:31.672Z,8.33
2019-06-07T19:31:58.868Z,9.85
2019-06-07T19:34:25.328Z,7.67
2019-06-07T19:36:51.561Z,9.35
2019-06-07T19:39:17.907Z,14.95
2019-06-07T19:41:44.155Z,10.82
2019-06-07T19:44:10.336Z,11.48
2019-06-07T19:46:36.620Z,8.75
2019-06-07T19:49:03.137Z,11.08
2019-06-07T19:51:29.590Z,10.72
2019-06-07T19:53:57.020Z,11.68
2019-06-07T19:56:23.368Z,10.68
2019-06-07T19:58:49.538Z,11.95
2019-06-07T20:01:15.727Z,12.95
2019-06-07T20:03:41.882Z,12.73
2019-06-07T20:06:08.079Z,12.15
2019-06-07T20:08:34.269Z,13.78
2019-06-07T20:11:00.607Z,10.55
2019-06-07T20:13:26.924Z,10.03
2019-06-07T20:15:53.093Z,9.78
2019-06-07T20:18:19.277Z,10.32
2019-06-07T20:20:46.050Z,10.68
2019-06-07T20:23:12.232Z,9.95
2019-06-07T20:25:38.407Z,10.43
2019-06-07T20:28:05.608Z,9.45
2019-06-07T20:30:31.842Z,11.20
2019-06-07T20:32:58.021Z,9.58
2019-06-07T20:35:24.173Z,8.78
2019-06-07T20:37:50.386Z,8.23
2019-06-07T20:40:24.395Z,8.03
2019-06-07T20:42:46.752Z,8.40
2019-06-07T20:45:13.739Z,9.70
2019-06-07T20:47:39.927Z,9.05
2019-06-07T20:50:08.465Z,10.20
2019-06-07T20:52:34.986Z,8.90
2019-06-07T20:55:02.695Z,7.70
2019-06-07T20:57:29.470Z,8.25
2019-06-07T20:59:55.751Z,6.62
2019-06-07T21:02:22.147Z,7.47
2019-06-07T21:04:48.378Z,7.85
2019-06-07T21:07:14.665Z,9.78
2019-06-07T21:09:40.963Z,9.93
2019-06-07T21:12:07.946Z,12.10
2019-06-07T21:14:34.309Z,12.25
2019-06-07T21:17:00.589Z,18.55
2019-06-07T21:19:26.777Z,15.68
2019-06-07T21:21:52.969Z,21.27
2019-06-07T21:24:19.148Z,13.22
2019-06-07T21:26:45.415Z,7.70
2019-06-07T21:29:12.079Z,17.98
2019-06-07T21:31:38.369Z,12.47
2019-06-07T21:34:07.653Z,10.85
2019-06-07T21:36:32.667Z,14.93
2019-06-07T21:38:58.859Z,7.33
2019-06-07T21:41:25.024Z,15.23
2019-06-07T21:43:51.228Z,7.05
2019-06-07T21:46:20.523Z,8.68
2019-06-07T21:48:45.518Z,8.15
2019-06-07T21:51:12.712Z,17.40
2019-06-07T21:53:39.072Z,10.28
2019-06-07T21:56:05.283Z,6.42
2019-06-07T21:58:31.444Z,7.25
2019-06-07T22:01:01.436Z,5.47
2019-06-07T22:03:27.910Z,5.30
2019-06-07T22:05:54.101Z,4.75
2019-06-07T22:08:20.258Z,3.08
2019-06-07T22:10:46.465Z,3.70
2019-06-07T22:13:12.625Z,5.80
2019-06-07T22:15:38.879Z,4.20
2019-06-07T22:18:06.960Z,9.03
2019-06-07T22:20:33.428Z,6.60
2019-06-07T22:22:59.589Z,4.35
2019-06-07T22:25:25.773Z,7.40
2019-06-07T22:27:51.957Z,3.77
2019-06-07T22:30:18.841Z,4.58
2019-06-07T22:32:45.122Z,4.40
2019-06-07T22:35:12.916Z,2.70
2019-06-07T22:37:39.168Z,4.00
2019-06-07T22:40:06.247Z,5.30
2019-06-07T22:42:32.641Z,3.17
2019-06-07T22:44:59.870Z,4.20
2019-06-07T22:47:26.139Z,4.08
2019-06-07T22:49:52.328Z,3.35
2019-06-07T22:52:18.506Z,6.33
2019-06-07T22:54:44.666Z,3.55
2019-06-07T22:57:16.630Z,3.60
2019-06-07T22:59:43.051Z,3.80
2019-06-07T23:02:10.354Z,3.80
2019-06-07T23:04:37.262Z,1.65
2019-06-07T23:07:03.512Z,1.45
2019-06-07T23:09:29.682Z,4.35
2019-06-07T23:11:55.876Z,4.08
2019-06-07T23:14:25.002Z,3.40
2019-06-07T23:16:55.565Z,7.80
2019-06-07T23:19:18.346Z,1.57
2019-06-07T23:21:44.708Z,2.83
2019-06-07T23:24:11.897Z,8.78
2019-06-07T23:26:38.263Z,5.10
2019-06-07T23:29:04.544Z,5.72
2019-06-07T23:31:30.805Z,4.08
2019-06-07T23:33:56.977Z,1.70
2019-06-07T23:36:23.148Z,3.33
2019-06-07T23:38:49.347Z,4.00
2019-06-07T23:41:15.591Z,1.60
2019-06-07T23:43:41.897Z,5.47
2019-06-07T23:46:08.120Z,4.25
2019-06-07T23:48:34.309Z,4.03
2019-06-07T23:51:00.494Z,3.15
2019-06-07T23:53:46.575Z,2.33
2019-06-07T23:56:13.794Z,2.65
2019-06-07T23:58:40.137Z,2.98
